createdAt,value
2023-01-18T00:01:58.672Z,37.83
2023-01-18T00:04:26.315Z,34.25
2023-01-18T00:06:54.570Z,34.83
2023-01-18T00:09:22.198Z,37.72
2023-01-18T00:11:51.931Z,37.40
2023-01-18T00:14:19.884Z,38.65
2023-01-18T00:16:47.872Z,33.88
2023-01-18T00:19:15.890Z,38.20
2023-01-18T00:21:43.997Z,34.05
2023-01-18T00:24:12.675Z,35.97
2023-01-18T00:26:42.337Z,38.88
2023-01-18T00:29:11.586Z,44.58
2023-01-18T00:31:39.989Z,38.85
2023-01-18T00:34:08.293Z,37.60
2023-01-18T00:36:36.485Z,39.40
2023-01-18T00:39:04.644Z,38.20
2023-01-18T00:41:32.809Z,33.75
2023-01-18T00:44:00.407Z,35.80
2023-01-18T00:46:30.392Z,38.53
2023-01-18T00:48:58.438Z,33.13
2023-01-18T00:51:26.669Z,40.65
2023-01-18T00:53:54.494Z,34.63
2023-01-18T00:56:23.082Z,42.60
2023-01-18T00:58:51.894Z,34.30
2023-01-18T01:01:20.094Z,33.72
2023-01-18T01:03:49.523Z,33.90
2023-01-18T01:06:24.945Z,41.10
2023-01-18T01:08:52.762Z,32.05
2023-01-18T01:11:20.656Z,27.42
2023-01-18T01:13:48.579Z,28.65
2023-01-18T01:16:16.799Z,34.00
2023-01-18T01:18:45.027Z,35.72
2023-01-18T01:21:14.378Z,33.50
2023-01-18T01:23:42.022Z,33.95
2023-01-18T01:26:11.345Z,33.22
2023-01-18T01:28:41.041Z,41.30
2023-01-18T01:31:11.119Z,35.58
2023-01-18T01:33:39.535Z,33.45
2023-01-18T01:36:11.366Z,34.92
2023-01-18T01:38:40.772Z,31.75
2023-01-18T01:41:13.941Z,37.63
2023-01-18T01:43:47.172Z,30.50
2023-01-18T01:46:32.030Z,32.33
2023-01-18T01:49:05.453Z,33.13
2023-01-18T01:51:36.040Z,34.15
2023-01-18T01:54:08.961Z,23.48
2023-01-18T01:56:37.519Z,35.78
2023-01-18T01:59:06.152Z,31.08
2023-01-18T02:01:35.059Z,27.38
2023-01-18T02:04:03.803Z,27.92
2023-01-18T02:06:37.561Z,34.10
2023-01-18T02:09:09.066Z,31.63
2023-01-18T02:11:37.355Z,32.35
2023-01-18T02:14:08.255Z,30.33
2023-01-18T02:16:55.533Z,31.55
2023-01-18T02:19:56.282Z,25.48
2023-01-18T02:22:43.000Z,25.98
2023-01-18T02:25:36.161Z,31.75
2023-01-18T02:28:11.094Z,29.80
2023-01-18T02:30:43.746Z,31.33
2023-01-18T02:33:19.316Z,28.13
2023-01-18T02:35:51.218Z,32.78
2023-01-18T02:38:22.389Z,31.05
2023-01-18T02:41:05.668Z,30.40
2023-01-18T02:43:36.423Z,28.50
2023-01-18T02:46:06.804Z,40.30
2023-01-18T02:48:38.072Z,26.00
2023-01-18T02:51:06.367Z,31.02
2023-01-18T02:53:40.800Z,30.15
2023-01-18T02:56:14.183Z,24.10
2023-01-18T02:58:47.448Z,31.13
2023-01-18T03:01:19.845Z,27.85
2023-01-18T03:06:17.553Z,27.13
2023-01-18T03:08:48.388Z,27.02
2023-01-18T03:11:21.872Z,31.67
2023-01-18T03:14:01.632Z,27.65
2023-01-18T03:16:40.628Z,28.83
2023-01-18T03:19:14.262Z,28.63
2023-01-18T03:21:46.197Z,28.92
2023-01-18T03:24:16.401Z,26.45
2023-01-18T03:26:48.934Z,34.55
2023-01-18T03:31:50.044Z,26.92
2023-01-18T03:34:22.728Z,33.53
2023-01-18T03:36:52.716Z,30.52
2023-01-18T03:39:26.130Z,31.65
2023-01-18T03:41:57.889Z,32.72
2023-01-18T03:44:36.887Z,28.35
2023-01-18T03:47:06.093Z,27.95
2023-01-18T03:49:40.201Z,26.35
2023-01-18T03:52:16.501Z,35.15
2023-01-18T03:54:51.943Z,33.85
2023-01-18T03:57:27.667Z,35.35
2023-01-18T04:00:00.261Z,38.20
2023-01-18T04:02:28.710Z,32.47
2023-01-18T04:04:57.300Z,37.92
2023-01-18T04:07:25.653Z,33.80
2023-01-18T04:09:53.839Z,32.90
2023-01-18T04:12:21.312Z,36.08
2023-01-18T04:14:49.310Z,33.67
2023-01-18T04:17:18.394Z,34.05
2023-01-18T04:19:46.632Z,39.47
2023-01-18T04:22:14.235Z,35.85
2023-01-18T04:24:42.203Z,34.55
2023-01-18T04:27:09.796Z,32.40
2023-01-18T04:29:37.923Z,34.88
2023-01-18T04:32:08.856Z,33.88
2023-01-18T04:34:38.397Z,41.80
2023-01-18T04:37:06.119Z,36.85
2023-01-18T04:39:34.140Z,36.75
2023-01-18T04:42:01.751Z,37.85
2023-01-18T04:44:29.839Z,43.55
2023-01-18T04:46:59.501Z,45.83
2023-01-18T04:49:27.433Z,42.50
2023-01-18T04:51:56.431Z,39.65
2023-01-18T04:54:24.741Z,37.10
2023-01-18T04:56:52.313Z,47.08
2023-01-18T04:59:20.783Z,41.75
2023-01-18T05:01:48.453Z,40.03
2023-01-18T05:04:16.530Z,46.58
2023-01-18T05:06:44.090Z,42.42
2023-01-18T05:09:13.681Z,42.33
2023-01-18T05:11:42.469Z,42.10
2023-01-18T05:14:10.449Z,41.53
2023-01-18T05:16:38.192Z,48.00
2023-01-18T05:19:06.199Z,35.92
2023-01-18T05:21:33.776Z,41.17
2023-01-18T05:24:01.672Z,40.00
2023-01-18T05:26:30.862Z,36.92
2023-01-18T05:28:59.324Z,37.60
2023-01-18T05:31:27.386Z,36.53
2023-01-18T05:33:56.825Z,41.45
2023-01-18T05:36:24.965Z,37.28
2023-01-18T05:38:52.985Z,39.70
2023-01-18T05:41:20.518Z,37.00
2023-01-18T05:43:49.994Z,40.63
2023-01-18T05:46:17.603Z,44.30
2023-01-18T05:48:45.947Z,38.78
2023-01-18T05:51:13.664Z,34.47
2023-01-18T05:53:41.624Z,39.35
2023-01-18T05:56:09.555Z,38.60
2023-01-18T05:58:37.514Z,33.75
2023-01-18T06:01:06.708Z,32.78
2023-01-18T06:03:35.448Z,47.38
2023-01-18T06:06:02.902Z,38.78
2023-01-18T06:08:30.785Z,37.67
2023-01-18T06:11:00.033Z,37.03
2023-01-18T06:13:30.513Z,40.83
2023-01-18T06:15:59.707Z,38.85
2023-01-18T06:18:32.552Z,35.45
2023-01-18T06:21:01.690Z,38.92
2023-01-18T06:23:30.524Z,32.47
2023-01-18T06:25:58.505Z,35.10
2023-01-18T06:28:29.042Z,39.65
2023-01-18T06:30:57.980Z,36.30
2023-01-18T06:33:26.071Z,34.20
2023-01-18T06:35:55.249Z,35.78
2023-01-18T06:38:23.714Z,36.40
2023-01-18T06:40:51.317Z,30.20
2023-01-18T06:43:19.493Z,33.22
2023-01-18T06:45:52.996Z,39.38
2023-01-18T06:48:21.386Z,33.95
2023-01-18T06:50:49.062Z,32.63
2023-01-18T06:53:18.877Z,38.22
2023-01-18T06:55:53.290Z,33.13
2023-01-18T06:58:21.395Z,34.78
2023-01-18T07:00:49.059Z,33.40
2023-01-18T07:03:17.278Z,35.50
2023-01-18T07:05:44.965Z,33.40
2023-01-18T07:08:12.812Z,35.58
2023-01-18T07:10:41.871Z,31.95
2023-01-18T07:13:10.058Z,29.02
2023-01-18T07:15:38.118Z,37.25
2023-01-18T07:18:06.251Z,31.52
2023-01-18T07:20:34.008Z,30.90
2023-01-18T07:23:02.068Z,38.42
2023-01-18T07:25:29.605Z,36.63
2023-01-18T07:27:59.007Z,29.92
2023-01-18T07:30:26.752Z,32.17
2023-01-18T07:32:54.784Z,47.85
2023-01-18T07:35:22.357Z,50.10
2023-01-18T07:37:51.768Z,47.50
2023-01-18T07:40:20.486Z,40.22
2023-01-18T07:42:48.793Z,39.85
2023-01-18T07:45:18.181Z,34.25
2023-01-18T07:47:46.478Z,28.65
2023-01-18T07:50:14.571Z,27.83
2023-01-18T07:52:42.770Z,31.02
2023-01-18T07:55:10.745Z,31.67
2023-01-18T07:57:38.849Z,30.48
2023-01-18T08:00:08.564Z,26.98
2023-01-18T08:02:39.033Z,26.70
2023-01-18T08:05:07.691Z,26.42
2023-01-18T08:07:35.581Z,25.77
2023-01-18T08:10:03.107Z,29.05
2023-01-18T08:12:31.378Z,23.88
2023-01-18T08:14:58.866Z,22.55
2023-01-18T08:17:26.828Z,24.70
2023-01-18T08:19:55.865Z,25.95
2023-01-18T08:22:23.838Z,25.30
2023-01-18T08:24:51.604Z,19.75
2023-01-18T08:27:19.862Z,24.50
2023-01-18T08:29:47.734Z,26.20
2023-01-18T08:32:16.209Z,28.15
2023-01-18T08:34:44.040Z,23.90
2023-01-18T08:37:14.026Z,20.55
2023-01-18T08:39:41.540Z,24.73
2023-01-18T08:42:11.911Z,22.83
2023-01-18T08:44:40.691Z,22.33
2023-01-18T08:47:10.563Z,24.15
2023-01-18T08:49:38.654Z,24.23
2023-01-18T08:52:06.642Z,21.27
2023-01-18T08:54:35.831Z,24.50
2023-01-18T08:57:06.313Z,23.52
2023-01-18T08:59:33.880Z,27.17
2023-01-18T09:02:02.066Z,24.90
2023-01-18T09:04:29.968Z,22.02
2023-01-18T09:06:58.325Z,22.13
2023-01-18T09:09:25.889Z,20.77
2023-01-18T09:11:55.646Z,24.95
2023-01-18T09:14:23.391Z,21.50
2023-01-18T09:16:51.361Z,19.05
2023-01-18T09:19:19.046Z,21.05
2023-01-18T09:21:47.347Z,23.30
2023-01-18T09:24:15.082Z,22.08
2023-01-18T09:26:45.060Z,23.55
2023-01-18T09:29:14.611Z,25.63
2023-01-18T09:31:43.121Z,24.38
2023-01-18T09:34:19.339Z,24.42
2023-01-18T09:36:50.847Z,21.85
2023-01-18T09:39:19.517Z,27.25
2023-01-18T09:41:51.985Z,22.98
2023-01-18T09:44:28.485Z,26.33
2023-01-18T09:47:00.229Z,23.60
2023-01-18T09:49:36.373Z,23.33
2023-01-18T09:52:27.401Z,23.52
2023-01-18T09:55:05.263Z,22.58
2023-01-18T09:57:46.613Z,22.67
2023-01-18T10:00:22.219Z,26.13
2023-01-18T10:02:53.772Z,22.40
2023-01-18T10:05:24.793Z,22.88
2023-01-18T10:07:59.577Z,22.40
2023-01-18T10:10:28.554Z,26.35
2023-01-18T10:13:06.989Z,24.67
2023-01-18T10:15:37.050Z,24.50
2023-01-18T10:18:05.115Z,22.02
2023-01-18T10:20:42.489Z,25.98
2023-01-18T10:23:16.476Z,26.48
2023-01-18T10:25:49.660Z,25.52
2023-01-18T10:28:31.015Z,25.10
2023-01-18T10:31:10.346Z,24.38
2023-01-18T10:33:40.009Z,27.98
2023-01-18T10:36:14.051Z,26.35
2023-01-18T10:38:43.115Z,29.52
2023-01-18T10:41:19.113Z,28.13
2023-01-18T10:43:47.635Z,30.73
2023-01-18T10:46:19.175Z,25.92
2023-01-18T10:48:49.078Z,29.10
2023-01-18T10:51:30.270Z,25.50
2023-01-18T10:53:58.363Z,26.73
2023-01-18T10:56:28.326Z,23.42
2023-01-18T10:58:58.521Z,28.95
2023-01-18T11:01:30.383Z,29.85
2023-01-18T11:04:01.706Z,27.45
2023-01-18T11:06:29.657Z,25.38
2023-01-18T11:08:58.196Z,34.22
2023-01-18T11:11:30.584Z,33.03
2023-01-18T11:16:27.189Z,27.75
2023-01-18T11:18:57.802Z,35.97
2023-01-18T11:21:27.424Z,32.85
2023-01-18T11:23:55.757Z,34.00
2023-01-18T11:26:24.304Z,39.97
2023-01-18T11:28:59.184Z,33.85
2023-01-18T11:31:30.972Z,35.67
2023-01-18T11:34:01.844Z,42.13
2023-01-18T11:36:38.347Z,39.05
2023-01-18T11:39:29.138Z,37.53
2023-01-18T11:42:20.077Z,35.67
2023-01-18T11:44:57.668Z,37.35
2023-01-18T11:47:35.185Z,38.83
2023-01-18T11:50:21.794Z,37.53
2023-01-18T11:52:54.090Z,36.58
2023-01-18T11:55:28.688Z,43.33
2023-01-18T11:57:56.484Z,37.95
2023-01-18T12:00:24.667Z,37.25
2023-01-18T12:03:09.538Z,44.22
2023-01-18T12:05:48.368Z,40.90
2023-01-18T12:08:39.642Z,43.63
2023-01-18T12:11:26.431Z,45.78
2023-01-18T12:14:00.834Z,41.30
2023-01-18T12:16:41.904Z,48.47
2023-01-18T12:19:57.830Z,41.90
2023-01-18T12:22:56.313Z,39.42
2023-01-18T12:25:52.057Z,37.67
2023-01-18T12:28:35.820Z,41.55
2023-01-18T12:31:14.824Z,45.72
2023-01-18T12:33:53.042Z,37.40
2023-01-18T12:36:44.244Z,43.03
2023-01-18T12:39:23.820Z,39.10
2023-01-18T12:41:56.938Z,37.78
2023-01-18T12:44:53.477Z,40.63
2023-01-18T12:47:33.830Z,43.90
2023-01-18T12:50:07.586Z,42.35
2023-01-18T12:52:46.388Z,43.63
2023-01-18T12:55:19.667Z,38.65
2023-01-18T12:57:50.278Z,34.15
2023-01-18T13:00:24.947Z,35.50
2023-01-18T13:02:56.625Z,30.88
2023-01-18T13:05:34.666Z,31.90
2023-01-18T13:08:10.179Z,42.35
2023-01-18T13:10:38.753Z,32.55
2023-01-18T13:13:07.427Z,31.60
2023-01-18T13:15:43.059Z,26.00
2023-01-18T13:18:17.234Z,28.73
2023-01-18T13:20:59.690Z,24.05
2023-01-18T13:23:37.648Z,23.70
2023-01-18T13:26:18.930Z,24.67
2023-01-18T13:28:46.857Z,24.10
2023-01-18T13:31:15.025Z,26.15
2023-01-18T13:33:44.760Z,18.63
2023-01-18T13:36:14.935Z,17.80
2023-01-18T13:38:51.830Z,21.30
2023-01-18T13:41:26.493Z,18.13
2023-01-18T13:44:03.025Z,20.67
2023-01-18T13:46:33.128Z,22.38
2023-01-18T13:49:36.084Z,21.73
2023-01-18T13:52:30.765Z,20.20
2023-01-18T13:55:05.391Z,25.00
2023-01-18T13:57:35.518Z,22.10
2023-01-18T14:00:05.405Z,21.65
2023-01-18T14:02:36.180Z,32.20
2023-01-18T14:05:07.655Z,23.65
2023-01-18T14:07:44.320Z,28.58
2023-01-18T14:10:24.098Z,39.40
2023-01-18T14:12:53.593Z,24.90
2023-01-18T14:15:29.037Z,20.73
2023-01-18T14:17:59.185Z,22.52
2023-01-18T14:20:53.494Z,22.77
2023-01-18T14:23:46.874Z,23.17
2023-01-18T14:26:17.047Z,21.38
2023-01-18T14:28:48.207Z,19.17
2023-01-18T14:31:21.041Z,20.95
2023-01-18T14:33:49.482Z,22.75
2023-01-18T14:36:22.118Z,25.98
2023-01-18T14:39:10.446Z,21.55
2023-01-18T14:41:38.317Z,24.52
2023-01-18T14:44:15.644Z,25.65
2023-01-18T14:46:50.030Z,25.70
2023-01-18T14:49:24.862Z,25.50
2023-01-18T14:51:53.837Z,27.33
2023-01-18T14:54:24.903Z,25.65
2023-01-18T14:57:01.422Z,25.40
2023-01-18T14:59:30.312Z,28.00
2023-01-18T15:01:59.617Z,27.77
2023-01-18T15:04:29.690Z,28.98
2023-01-18T15:07:00.315Z,29.13
2023-01-18T15:09:33.191Z,30.00
2023-01-18T15:12:04.851Z,31.17
2023-01-18T15:14:35.439Z,23.55
2023-01-18T15:17:08.607Z,32.33
2023-01-18T15:19:46.100Z,31.77
2023-01-18T15:22:16.397Z,27.17
2023-01-18T15:24:47.108Z,25.90
2023-01-18T15:27:16.054Z,27.27
2023-01-18T15:29:47.661Z,26.70
2023-01-18T15:32:16.852Z,28.58
2023-01-18T15:34:47.347Z,27.67
2023-01-18T15:37:19.076Z,32.75
2023-01-18T15:39:58.125Z,30.10
2023-01-18T15:42:28.444Z,32.35
2023-01-18T15:44:58.554Z,30.80
2023-01-18T15:47:29.145Z,32.75
2023-01-18T15:49:59.806Z,31.55
2023-01-18T15:52:38.616Z,34.75
2023-01-18T15:55:20.055Z,30.52
2023-01-18T15:57:57.681Z,29.08
2023-01-18T16:00:28.862Z,32.25
2023-01-18T16:02:56.725Z,32.28
2023-01-18T16:05:27.081Z,36.42
2023-01-18T16:08:16.902Z,38.30
2023-01-18T16:10:52.192Z,30.50
2023-01-18T16:13:31.036Z,34.53
2023-01-18T16:16:22.147Z,37.22
2023-01-18T16:18:59.437Z,33.72
2023-01-18T16:21:35.523Z,32.38
2023-01-18T16:24:03.563Z,41.75
2023-01-18T16:26:33.763Z,45.33
2023-01-18T16:29:09.211Z,47.75
2023-01-18T16:31:41.851Z,37.75
2023-01-18T16:34:24.288Z,42.50
2023-01-18T16:36:53.332Z,35.85
2023-01-18T16:39:21.795Z,41.63
2023-01-18T16:41:56.605Z,38.55
2023-01-18T16:44:24.266Z,38.13
2023-01-18T16:46:52.598Z,46.92
2023-01-18T16:49:20.617Z,67.50
2023-01-18T16:51:50.588Z,63.35
2023-01-18T16:54:18.571Z,57.13
2023-01-18T16:56:47.084Z,65.75
2023-01-18T16:59:20.534Z,57.55
2023-01-18T17:01:49.505Z,61.45
2023-01-18T17:04:17.805Z,80.15
2023-01-18T17:06:46.056Z,81.72
2023-01-18T17:09:20.073Z,84.28
2023-01-18T17:11:49.491Z,71.78
2023-01-18T17:14:20.560Z,74.88
2023-01-18T17:16:49.620Z,63.47
2023-01-18T17:19:19.269Z,74.72
2023-01-18T17:21:48.535Z,67.45
2023-01-18T17:24:17.823Z,71.93
2023-01-18T17:26:46.021Z,62.47
2023-01-18T17:29:15.360Z,70.65
2023-01-18T17:31:52.149Z,61.65
2023-01-18T17:34:27.357Z,58.78
2023-01-18T17:36:59.005Z,58.97
2023-01-18T17:39:37.102Z,62.63
2023-01-18T17:42:18.739Z,62.83
2023-01-18T17:44:47.153Z,57.90
2023-01-18T17:47:17.349Z,54.03
2023-01-18T17:49:45.085Z,59.70
2023-01-18T17:52:13.138Z,58.70
2023-01-18T17:54:40.717Z,59.05
2023-01-18T17:57:09.101Z,56.97
2023-01-18T17:59:36.842Z,44.72
2023-01-18T18:02:05.175Z,46.20
2023-01-18T18:04:34.396Z,49.75
2023-01-18T18:07:03.359Z,49.60
2023-01-18T18:09:31.443Z,55.05
2023-01-18T18:12:00.160Z,53.47
2023-01-18T18:14:27.941Z,54.50
2023-01-18T18:16:56.371Z,56.70
2023-01-18T18:19:24.083Z,43.10
2023-01-18T18:21:53.752Z,53.85
2023-01-18T18:24:21.839Z,44.10
2023-01-18T18:26:49.984Z,45.17
2023-01-18T18:29:18.172Z,56.67
2023-01-18T18:31:46.637Z,49.78
2023-01-18T18:34:14.429Z,50.40
2023-01-18T18:36:42.628Z,48.95
2023-01-18T18:39:11.937Z,46.28
2023-01-18T18:41:40.151Z,49.60
2023-01-18T18:44:07.846Z,54.20
2023-01-18T18:46:36.034Z,49.92
2023-01-18T18:49:03.793Z,52.05
2023-01-18T18:51:32.674Z,51.83
2023-01-18T18:54:00.373Z,51.85
2023-01-18T18:56:30.027Z,56.72
2023-01-18T18:58:57.828Z,54.42
2023-01-18T19:01:27.882Z,45.38
2023-01-18T19:03:56.425Z,46.60
2023-01-18T19:06:25.653Z,48.83
2023-01-18T19:08:54.552Z,55.05
2023-01-18T19:11:23.010Z,56.05
2023-01-18T19:13:54.769Z,54.10
2023-01-18T19:16:23.542Z,44.88
2023-01-18T19:18:51.439Z,58.67
2023-01-18T19:21:19.682Z,57.40
2023-01-18T19:23:47.328Z,51.08
2023-01-18T19:26:15.604Z,54.67
2023-01-18T19:28:43.237Z,54.53
2023-01-18T19:31:13.285Z,55.08
2023-01-18T19:33:40.941Z,60.22
2023-01-18T19:36:14.770Z,54.75
2023-01-18T19:38:46.016Z,54.40
2023-01-18T19:41:15.471Z,61.03
2023-01-18T19:43:43.414Z,54.78
2023-01-18T19:46:13.490Z,57.42
2023-01-18T19:48:41.307Z,58.60
2023-01-18T19:51:21.391Z,62.13
2023-01-18T19:53:50.388Z,59.85
2023-01-18T19:56:18.835Z,63.63
2023-01-18T19:58:46.830Z,71.90
2023-01-18T20:01:34.668Z,62.70
2023-01-18T20:04:04.051Z,53.97
2023-01-18T20:06:32.629Z,61.47
2023-01-18T20:09:00.690Z,66.50
2023-01-18T20:11:28.730Z,61.88
2023-01-18T20:13:56.379Z,66.50
2023-01-18T20:16:25.977Z,75.95
2023-01-18T20:18:53.690Z,61.30
2023-01-18T20:21:22.222Z,66.32
2023-01-18T20:23:49.817Z,75.15
2023-01-18T20:26:31.094Z,86.50
2023-01-18T20:29:03.375Z,74.10
2023-01-18T20:31:33.297Z,77.88
2023-01-18T20:34:00.956Z,78.50
2023-01-18T20:36:29.035Z,84.25
2023-01-18T20:38:57.084Z,74.30
2023-01-18T20:41:25.451Z,61.33
2023-01-18T20:43:53.325Z,66.53
2023-01-18T20:46:21.421Z,64.53
2023-01-18T20:48:51.101Z,62.42
2023-01-18T20:51:19.640Z,63.53
2023-01-18T20:53:47.339Z,60.17
2023-01-18T20:56:28.286Z,57.40
2023-01-18T20:58:57.005Z,56.83
2023-01-18T21:01:25.471Z,58.15
2023-01-18T21:03:55.564Z,61.33
2023-01-18T21:06:24.406Z,48.10
2023-01-18T21:08:52.444Z,53.67
2023-01-18T21:11:21.474Z,52.28
2023-01-18T21:13:49.507Z,48.25
2023-01-18T21:16:18.218Z,46.83
2023-01-18T21:18:46.223Z,41.58
2023-01-18T21:21:15.863Z,41.30
2023-01-18T21:23:43.485Z,39.88
2023-01-18T21:26:12.885Z,35.42
2023-01-18T21:28:40.849Z,33.55
2023-01-18T21:31:09.008Z,31.88
2023-01-18T21:33:36.763Z,32.38
2023-01-18T21:36:07.190Z,29.27
2023-01-18T21:38:39.063Z,33.97
2023-01-18T21:41:07.109Z,32.65
2023-01-18T21:43:35.127Z,33.50
2023-01-18T21:46:04.104Z,39.08
2023-01-18T21:48:31.727Z,39.45
2023-01-18T21:51:01.036Z,30.98
2023-01-18T21:53:28.798Z,49.78
2023-01-18T21:55:58.658Z,44.55
2023-01-18T21:58:26.239Z,42.45
2023-01-18T22:00:54.576Z,43.00
2023-01-18T22:03:22.377Z,48.00
2023-01-18T22:05:50.824Z,51.47
2023-01-18T22:08:18.503Z,34.05
2023-01-18T22:10:46.861Z,35.55
2023-01-18T22:13:16.831Z,42.83
2023-01-18T22:15:44.741Z,41.42
2023-01-18T22:18:13.068Z,39.72
2023-01-18T22:20:40.741Z,43.40
2023-01-18T22:23:09.233Z,40.95
2023-01-18T22:25:36.927Z,38.47
2023-01-18T22:28:05.336Z,36.45
2023-01-18T22:30:34.498Z,44.70
2023-01-18T22:33:03.087Z,43.78
2023-01-18T22:35:31.139Z,43.58
2023-01-18T22:37:59.422Z,40.65
2023-01-18T22:40:27.178Z,42.67
2023-01-18T22:42:55.367Z,43.45
2023-01-18T22:45:23.070Z,42.78
2023-01-18T22:47:52.877Z,43.55
2023-01-18T22:50:20.755Z,39.65
2023-01-18T22:52:49.250Z,50.00
2023-01-18T22:55:17.281Z,43.75
2023-01-18T22:57:45.285Z,45.13
2023-01-18T23:00:13.955Z,43.58
2023-01-18T23:02:42.609Z,43.40
2023-01-18T23:05:11.876Z,40.78
2023-01-18T23:07:40.141Z,45.05
2023-01-18T23:10:08.594Z,47.63
2023-01-18T23:12:36.657Z,42.20
2023-01-18T23:15:05.863Z,46.95
2023-01-18T23:17:33.797Z,41.45
2023-01-18T23:20:01.442Z,50.30
2023-01-18T23:22:30.891Z,49.88
2023-01-18T23:24:58.678Z,44.58
2023-01-18T23:27:26.895Z,44.80
2023-01-18T23:29:54.601Z,47.92
2023-01-18T23:32:23.138Z,51.22
2023-01-18T23:34:50.883Z,41.58
2023-01-18T23:37:18.933Z,45.55
2023-01-18T23:39:47.955Z,42.95
2023-01-18T23:42:15.991Z,42.97
2023-01-18T23:44:43.751Z,39.35
2023-01-18T23:47:12.219Z,44.05
2023-01-18T23:49:39.649Z,40.05
2023-01-18T23:52:07.819Z,42.50
2023-01-18T23:54:35.364Z,40.83
2023-01-18T23:57:04.931Z,38.92
2023-01-18T23:59:32.565Z,39.63
